Time;durP1;ratioP1;P1;durP2;ratioP2;P2;SDS_P1;SDS_P2;PMS_P1;PMS_P2;Temp;Humidity;BMP_temperature;BMP_pressure;BME280_temperature;BME280_humidity;BME280_pressure;Samples;Min_cycle;Max_cycle;Signal;HPM_P1;HPM_P2
2023/04/12 00:03:20;;;;;;;8.07;6.25;;;;;;;7.55;100.00;100293.66;10378600;28;20105;-72
2023/04/12 00:08:31;;;;;;;10.10;5.70;;;;;;;7.48;100.00;100276.59;10377232;28;20022;-74
2023/04/12 00:13:32;;;;;;;5.30;4.80;;;;;;;7.50;100.00;100258.41;10378766;28;20030;-72
2023/04/12 00:18:32;;;;;;;7.05;4.45;;;;;;;7.50;100.00;100246.75;10377928;28;20034;-72
2023/04/12 00:23:33;;;;;;;7.30;5.22;;;;;;;7.50;100.00;100226.06;10377915;28;20255;-72
2023/04/12 00:28:33;;;;;;;5.32;4.63;;;;;;;7.50;100.00;100193.75;10360150;28;20091;-72
2023/04/12 00:33:34;;;;;;;7.35;4.35;;;;;;;7.52;100.00;100185.44;10376874;28;20064;-72
2023/04/12 00:38:35;;;;;;;8.23;3.90;;;;;;;7.56;100.00;100205.59;10377297;28;20108;-72
2023/04/12 00:43:35;;;;;;;5.85;3.85;;;;;;;7.49;100.00;100156.22;10376823;28;20046;-72
2023/04/12 00:48:36;;;;;;;4.05;3.60;;;;;;;7.55;100.00;100148.16;10376490;28;20034;-72
2023/04/12 00:53:37;;;;;;;10.90;3.83;;;;;;;7.55;100.00;100131.19;10375629;28;20076;-72
2023/04/12 00:58:38;;;;;;;6.90;4.72;;;;;;;7.58;100.00;100112.75;10376921;28;20045;-72
2023/04/12 01:03:41;;;;;;;4.30;3.38;;;;;;;7.51;100.00;100103.81;10378184;28;20069;-72
2023/04/12 01:08:46;;;;;;;3.80;3.42;;;;;;;7.52;100.00;100086.59;10394152;28;20101;-72
2023/04/12 01:13:51;;;;;;;21.65;4.72;;;;;;;7.49;100.00;100072.69;10394389;28;20029;-73
2023/04/12 01:18:52;;;;;;;9.05;4.72;;;;;;;7.45;100.00;100050.72;10376551;28;20157;-72
2023/04/12 01:24:44;;;;;;;7.32;3.80;;;;;;;7.46;100.00;100034.34;10375753;28;20026;-72
2023/04/12 01:29:48;;;;;;;5.25;3.63;;;;;;;7.48;100.00;100023.38;10383662;28;20342;-72
2023/04/12 01:34:49;;;;;;;3.97;3.28;;;;;;;7.44;100.00;100005.97;10373779;28;20103;-73
2023/04/12 01:39:50;;;;;;;9.18;2.42;;;;;;;7.43;100.00;99982.72;10374111;28;20045;-73
2023/04/12 01:44:50;;;;;;;3.35;2.47;;;;;;;7.40;100.00;99972.34;10373212;28;20117;-72
2023/04/12 01:50:06;;;;;;;4.57;2.55;;;;;;;7.33;100.00;99960.72;10374938;28;20033;-72
2023/04/12 01:55:06;;;;;;;6.20;2.42;;;;;;;7.34;100.00;99960.53;10374768;28;20026;-72
2023/04/12 02:00:09;;;;;;;3.60;2.20;;;;;;;7.34;100.00;99946.22;10373969;28;20106;-72
2023/04/12 02:05:10;;;;;;;3.03;2.60;;;;;;;7.34;100.00;99930.06;10373781;28;20033;-72
2023/04/12 02:10:14;;;;;;;6.35;3.15;;;;;;;7.34;100.00;99906.66;10373640;28;20091;-72
2023/04/12 02:15:15;;;;;;;2.78;1.83;;;;;;;7.31;100.00;99920.53;10356421;28;20450;-71
2023/04/12 02:20:16;;;;;;;4.13;1.90;;;;;;;7.34;100.00;99909.38;10372804;28;20034;-72
2023/04/12 02:25:19;;;;;;;2.35;1.75;;;;;;;7.32;100.00;99887.19;10372306;28;20107;-72
2023/04/12 02:30:21;;;;;;;5.75;2.22;;;;;;;7.32;100.00;99870.19;10373320;28;20026;-73
2023/04/12 02:35:23;;;;;;;2.58;1.92;;;;;;;7.37;100.00;99865.00;10373524;28;20030;-72
2023/04/12 02:40:24;;;;;;;2.47;2.30;;;;;;;7.39;100.00;99862.97;10359580;28;20045;-72
2023/04/12 02:45:26;;;;;;;6.82;2.17;;;;;;;7.42;100.00;99852.59;10382300;28;20042;-72
2023/04/12 02:50:26;;;;;;;0.40;0.40;;;;;;;7.38;100.00;99832.50;10380378;28;20026;-73
2023/04/12 02:55:29;;;;;;;1.15;1.15;;;;;;;7.43;100.00;99830.06;10379456;28;20026;-72
2023/04/12 03:00:29;;;;;;;0.40;0.40;;;;;;;7.44;100.00;99828.19;10379915;28;20374;-73
2023/04/12 03:05:30;;;;;;;0.50;0.50;;;;;;;7.44;100.00;99806.63;10382028;28;20037;-73
2023/04/12 03:10:31;;;;;;;0.40;0.40;;;;;;;7.48;100.00;99788.19;10379668;28;20029;-73
2023/04/12 03:15:32;;;;;;;0.35;0.35;;;;;;;7.46;100.00;99777.59;10396849;28;20079;-73
2023/04/12 03:20:32;;;;;;;0.47;0.47;;;;;;;7.53;100.00;99789.25;10362339;28;20434;-72
2023/04/12 03:25:33;;;;;;;0.30;0.30;;;;;;;7.58;100.00;99775.16;10380775;28;20021;-73
2023/04/12 03:30:34;;;;;;;0.40;0.40;;;;;;;7.59;100.00;99764.16;10380162;28;20037;-73
2023/04/12 03:35:35;;;;;;;0.73;0.73;;;;;;;7.59;100.00;99752.56;10379070;28;20053;-73
2023/04/12 03:40:35;;;;;;;0.50;0.50;;;;;;;7.57;100.00;99765.41;10396336;28;20473;-73
2023/04/12 03:45:36;;;;;;;0.40;0.40;;;;;;;7.63;100.00;99753.81;10396558;28;20503;-73
2023/04/12 03:50:47;;;;;;;0.40;0.40;;;;;;;7.66;100.00;99735.38;10360785;28;20109;-73
2023/04/12 03:55:47;;;;;;;0.40;0.40;;;;;;;7.75;100.00;99737.84;10393669;28;20108;-73
2023/04/12 04:00:48;;;;;;;0.30;0.30;;;;;;;7.85;100.00;99740.97;10378307;28;20120;-74
2023/04/12 04:05:49;;;;;;;0.40;0.40;;;;;;;7.87;100.00;99722.72;10377436;28;20117;-73
2023/04/12 04:10:50;;;;;;;0.40;0.40;;;;;;;7.88;100.00;99727.91;10378351;28;20026;-73
2023/04/12 04:15:57;;;;;;;0.40;0.40;;;;;;;7.89;100.00;99748.41;10393557;28;20026;-73
2023/04/12 04:20:58;;;;;;;0.70;0.70;;;;;;;8.07;100.00;99725.38;10392914;28;20041;-73
2023/04/12 04:25:59;;;;;;;0.30;0.30;;;;;;;8.12;100.00;99734.50;10393859;28;20096;-73
2023/04/12 04:31:04;;;;;;;0.38;0.38;;;;;;;8.20;100.00;99732.59;10376422;28;20504;-72
2023/04/12 04:36:09;;;;;;;0.50;0.50;;;;;;;8.29;100.00;99739.44;10361750;28;20037;-73
2023/04/12 04:41:09;;;;;;;0.80;0.80;;;;;;;8.34;100.00;99748.56;10376148;28;20044;-74
2023/04/12 04:46:10;;;;;;;0.40;0.40;;;;;;;8.44;100.00;99750.03;10377031;28;20060;-74
2023/04/12 04:51:11;;;;;;;0.40;0.40;;;;;;;8.48;100.00;99737.75;10375005;28;20129;-74
2023/04/12 04:56:11;;;;;;;0.40;0.40;;;;;;;8.43;100.00;99737.59;10391204;28;20476;-74
2023/04/12 05:01:12;;;;;;;2.45;2.35;;;;;;;8.50;100.00;99741.09;10391052;28;20473;-73
2023/04/12 05:06:12;;;;;;;0.20;0.20;;;;;;;8.49;100.00;99736.75;10375621;28;20125;-74
2023/04/12 05:11:13;;;;;;;0.60;0.60;;;;;;;8.54;100.00;99739.63;10375562;28;20207;-74
2023/04/12 05:16:14;;;;;;;0.45;0.45;;;;;;;8.60;100.00;99725.28;10374695;28;20108;-73
2023/04/12 05:21:14;;;;;;;0.55;0.55;;;;;;;8.64;100.00;99731.88;10374365;28;20041;-73
2023/04/12 05:26:15;;;;;;;0.63;0.63;;;;;;;8.67;100.00;99728.75;10375148;28;20030;-74
2023/04/12 05:31:16;;;;;;;0.40;0.40;;;;;;;8.66;100.00;99729.81;10374714;28;20030;-74
2023/04/12 05:36:17;;;;;;;0.25;0.25;;;;;;;8.68;100.00;99740.38;10375080;28;20477;-73
2023/04/12 05:41:18;;;;;;;0.32;0.32;;;;;;;8.65;100.00;99747.06;10373495;28;20089;-74
2023/04/12 05:46:18;;;;;;;0.35;0.35;;;;;;;8.64;100.00;99739.16;10374760;28;20092;-74
2023/04/12 05:51:19;;;;;;;0.40;0.40;;;;;;;8.63;100.00;99751.00;10375454;28;20096;-75
2023/04/12 05:56:20;;;;;;;0.30;0.30;;;;;;;8.59;100.00;99742.50;10389224;28;20120;-75
2023/04/12 06:01:20;;;;;;;0.40;0.40;;;;;;;8.59;100.00;99740.63;10374561;28;20038;-74
2023/04/12 06:06:28;;;;;;;1.15;1.15;;;;;;;8.58;100.00;99744.38;10389810;28;20038;-74
2023/04/12 06:11:32;;;;;;;0.40;0.40;;;;;;;8.59;100.00;99739.81;10358517;28;20041;-75
2023/04/12 06:16:33;;;;;;;0.50;0.50;;;;;;;8.52;100.00;99753.31;10371850;28;20034;-75
2023/04/12 06:21:34;;;;;;;0.70;0.70;;;;;;;8.45;100.00;99760.59;10373206;28;20022;-74
2023/04/12 06:26:35;;;;;;;0.35;0.35;;;;;;;8.41;100.00;99743.19;10373737;28;20038;-74
2023/04/12 06:31:35;;;;;;;0.30;0.30;;;;;;;8.39;100.00;99753.34;10373092;28;20034;-75
2023/04/12 06:36:38;;;;;;;0.70;0.70;;;;;;;8.48;100.00;99749.38;10388110;28;20034;-74
2023/04/12 06:41:39;;;;;;;0.30;0.30;;;;;;;8.67;100.00;99755.75;10388634;28;20406;-75
2023/04/12 06:46:40;;;;;;;0.82;0.82;;;;;;;8.87;100.00;99754.84;10387975;28;20041;-75
2023/04/12 06:51:40;;;;;;;0.60;0.60;;;;;;;8.97;100.00;99741.72;10389134;28;20042;-74
2023/04/12 06:56:41;;;;;;;0.38;0.38;;;;;;;8.97;100.00;99742.56;10372469;28;20225;-75
2023/04/12 07:01:42;;;;;;;0.55;0.55;;;;;;;8.79;100.00;99745.13;10371959;28;20046;-75
2023/04/12 07:06:46;;;;;;;0.70;0.70;;;;;;;8.99;100.00;99737.75;10388070;28;20033;-75
2023/04/12 07:11:47;;;;;;;1.75;1.65;;;;;;;10.34;100.00;99726.53;10371744;28;20377;-75
2023/04/12 07:16:47;;;;;;;0.77;0.77;;;;;;;12.36;100.00;99714.16;10372612;28;20026;-76
2023/04/12 07:21:48;;;;;;;0.40;0.40;;;;;;;13.92;100.00;99702.94;10371142;28;20486;-76
2023/04/12 07:26:48;;;;;;;0.38;0.38;;;;;;;14.44;100.00;99704.50;10374745;28;20477;-77
2023/04/12 07:31:49;;;;;;;3.80;1.48;;;;;;;13.24;100.00;99710.25;10378042;28;20110;-78
2023/04/12 07:36:49;;;;;;;1.80;1.75;;;;;;;12.00;100.00;99704.41;10378243;28;20034;-78
2023/04/12 07:41:51;;;;;;;0.60;0.60;;;;;;;11.50;100.00;99696.66;10377566;28;20065;-77
2023/04/12 07:46:51;;;;;;;1.15;1.15;;;;;;;11.49;100.00;99700.44;10377777;28;20042;-78
2023/04/12 07:51:52;;;;;;;26.70;4.82;;;;;;;12.25;100.00;99704.97;10377652;28;20228;-78
2023/04/12 07:57:00;;;;;;;13.40;4.63;;;;;;;12.38;100.00;99703.91;10393152;28;20041;-78
2023/04/12 08:02:01;;;;;;;22.20;5.88;;;;;;;12.48;100.00;99704.13;10378285;28;20152;-77
2023/04/12 08:07:02;;;;;;;18.48;4.57;;;;;;;12.10;100.00;99708.16;10376727;28;20117;-77
2023/04/12 08:12:03;;;;;;;24.27;5.78;;;;;;;12.71;100.00;99700.50;10378197;28;20036;-77
2023/04/12 08:17:03;;;;;;;19.05;5.10;;;;;;;14.22;100.00;99695.47;10378310;28;20478;-77
2023/04/12 08:22:04;;;;;;;17.95;4.85;;;;;;;14.22;100.00;99711.81;10376936;28;20065;-78
2023/04/12 08:27:04;;;;;;;11.07;3.30;;;;;;;13.88;100.00;99715.41;10376157;28;20062;-77
2023/04/12 08:32:06;;;;;;;9.63;4.72;;;;;;;13.96;100.00;99712.25;10378922;28;20034;-77
2023/04/12 08:37:06;;;;;;;20.73;5.07;;;;;;;14.04;100.00;99696.56;10376874;28;20037;-77
2023/04/12 08:42:07;;;;;;;13.73;4.43;;;;;;;14.14;100.00;99703.00;10375239;28;20048;-76
2023/04/12 08:47:08;;;;;;;10.05;4.20;;;;;;;13.70;100.00;99700.16;10375438;28;20030;-76
2023/04/12 08:52:09;;;;;;;13.10;3.67;;;;;;;13.11;100.00;99696.09;10376239;28;20033;-75
2023/04/12 08:57:10;;;;;;;17.50;5.28;;;;;;;12.90;100.00;99692.19;10375100;28;20026;-76
2023/04/12 09:02:12;;;;;;;11.13;4.45;;;;;;;12.94;100.00;99690.63;10374871;28;20505;-76
2023/04/12 09:07:13;;;;;;;20.83;5.57;;;;;;;13.21;100.00;99707.19;10391644;28;20045;-75
2023/04/12 09:12:14;;;;;;;6.15;2.65;;;;;;;13.45;100.00;99705.16;10359283;28;20485;-75
2023/04/12 09:17:27;;;;;;;9.05;2.83;;;;;;;14.07;100.00;99705.09;10374263;28;20068;-75
2023/04/12 09:22:34;;;;;;;19.38;5.70;;;;;;;14.32;100.00;99701.88;10390029;28;20036;-75
2023/04/12 09:27:48;;;;;;;4.95;3.03;;;;;;;13.81;100.00;99692.16;10375201;28;20469;-75
2023/04/12 09:32:48;;;;;;;10.23;3.30;;;;;;;13.29;100.00;99703.25;10374958;28;20038;-75
2023/04/12 09:37:56;;;;;;;7.68;3.42;;;;;;;12.86;100.00;99694.56;10373742;28;20490;-75
2023/04/12 09:42:57;;;;;;;13.60;4.60;;;;;;;13.92;100.00;99707.56;10374897;28;20124;-74
2023/04/12 09:47:58;;;;;;;12.32;4.72;;;;;;;15.06;100.00;99701.47;10389893;28;20493;-74
2023/04/12 09:53:00;;;;;;;13.63;4.97;;;;;;;15.87;100.00;99708.78;10373647;28;20121;-74
2023/04/12 09:58:02;;;;;;;10.85;4.75;;;;;;;15.82;100.00;99708.72;10389800;28;20378;-74
2023/04/12 10:03:03;;;;;;;9.43;4.30;;;;;;;16.41;100.00;99710.50;10373511;28;20041;-74
2023/04/12 10:08:04;;;;;;;5.28;3.67;;;;;;;17.30;100.00;99694.97;10372853;28;20034;-74
2023/04/12 10:13:05;;;;;;;2.72;2.20;;;;;;;17.66;100.00;99704.03;10374048;28;20041;-74
2023/04/12 10:18:05;;;;;;;7.13;3.53;;;;;;;16.74;100.00;99704.63;10373275;28;20060;-74
2023/04/12 10:23:06;;;;;;;5.40;3.47;;;;;;;16.70;100.00;99719.09;10372480;28;20037;-74
2023/04/12 10:28:20;;;;;;;11.38;3.25;;;;;;;16.91;100.00;99717.28;10356333;28;20453;-73
2023/04/12 10:33:25;;;;;;;8.40;3.70;;;;;;;17.28;100.00;99714.38;10373374;28;20045;-74
2023/04/12 10:38:29;;;;;;;11.00;2.88;;;;;;;18.32;100.00;99712.19;10374037;28;20150;-73
2023/04/12 10:43:30;;;;;;;9.55;3.17;;;;;;;18.93;100.00;99713.94;10371599;28;20049;-74
2023/04/12 10:48:34;;;;;;;5.90;3.33;;;;;;;18.68;100.00;99703.03;10389555;28;20088;-73
2023/04/12 10:53:34;;;;;;;9.05;2.05;;;;;;;18.52;100.00;99715.97;10373786;28;20117;-73
2023/04/12 10:58:47;;;;;;;3.05;2.55;;;;;;;18.95;100.00;99714.47;10371155;28;20057;-74
2023/04/12 11:04:24;;;;;;;14.80;1.98;;;;;;;19.58;100.00;99718.47;10378866;28;20100;-73
2023/04/12 11:09:29;;;;;;;5.32;2.35;;;;;;;18.25;100.00;99711.69;10424963;28;20042;-73
2023/04/12 11:14:33;;;;;;;5.13;2.30;;;;;;;16.30;100.00;99736.91;10379399;28;20100;-73
2023/04/12 11:19:37;;;;;;;3.00;1.80;;;;;;;15.38;100.00;99738.03;10379575;28;20041;-73
2023/04/12 11:24:38;;;;;;;5.07;1.70;;;;;;;14.71;100.00;99731.88;10378111;28;20034;-74
2023/04/12 11:29:39;;;;;;;4.57;1.98;;;;;;;14.75;100.00;99734.91;10378541;28;20474;-73
2023/04/12 11:34:40;;;;;;;7.18;2.20;;;;;;;15.47;100.00;99740.03;10379307;28;20148;-74
2023/04/12 11:39:41;;;;;;;2.95;2.03;;;;;;;15.15;100.00;99736.44;10377569;28;20021;-73
2023/04/12 11:44:46;;;;;;;5.55;2.08;;;;;;;14.58;100.00;99743.13;10378323;28;20046;-73
2023/04/12 11:49:49;;;;;;;8.38;2.40;;;;;;;13.75;100.00;99744.84;10378922;28;20381;-73
2023/04/12 11:54:49;;;;;;;4.07;2.35;;;;;;;12.96;100.00;99753.72;10377358;28;20492;-73
2023/04/12 11:59:50;;;;;;;5.10;2.00;;;;;;;12.52;100.00;99759.59;10377242;28;20030;-73
2023/04/12 12:04:50;;;;;;;10.65;3.83;;;;;;;11.99;100.00;99765.97;10376934;28;20038;-75
2023/04/12 12:09:51;;;;;;;4.93;2.72;;;;;;;11.92;100.00;99757.13;10376852;28;20458;-74
2023/04/12 12:14:51;;;;;;;7.68;2.25;;;;;;;11.68;100.00;99753.53;10376243;28;20062;-73
2023/04/12 12:19:55;;;;;;;11.10;3.67;;;;;;;11.71;100.00;99736.78;10376570;28;20062;-73
2023/04/12 12:24:57;;;;;;;6.57;2.75;;;;;;;12.68;100.00;99740.91;10379503;28;20037;-74
2023/04/12 12:30:00;;;;;;;10.13;1.70;;;;;;;12.75;100.00;99758.72;10376296;28;20029;-73
2023/04/12 12:35:00;;;;;;;11.07;2.83;;;;;;;12.62;100.00;99750.84;10377331;28;20038;-74
2023/04/12 12:40:01;;;;;;;9.02;3.75;;;;;;;12.98;100.00;99751.56;10376147;28;20447;-73
2023/04/12 12:45:03;;;;;;;8.50;3.73;;;;;;;12.83;100.00;99764.84;10377262;28;20054;-73
2023/04/12 12:50:04;;;;;;;4.38;2.28;;;;;;;13.46;100.00;99764.78;10391871;28;20350;-73
2023/04/12 12:55:05;;;;;;;4.20;1.27;;;;;;;14.87;100.00;99741.88;10376091;28;20115;-74
2023/04/12 13:00:06;;;;;;;2.10;1.45;;;;;;;13.55;100.00;99743.41;10359286;28;20034;-74
2023/04/12 13:05:07;;;;;;;1.65;1.13;;;;;;;13.34;100.00;99749.59;10375437;28;20100;-73
2023/04/12 13:10:07;;;;;;;17.73;2.22;;;;;;;12.83;100.00;99743.09;10375532;28;20096;-73
2023/04/12 13:15:10;;;;;;;3.58;1.85;;;;;;;13.32;100.00;99736.22;10376691;28;20041;-73
2023/04/12 13:20:11;;;;;;;3.20;1.15;;;;;;;13.72;100.00;99736.13;10375844;28;20041;-73
2023/04/12 13:25:11;;;;;;;1.38;1.27;;;;;;;13.42;100.00;99735.56;10357237;28;20060;-74
2023/04/12 13:30:12;;;;;;;4.40;1.52;;;;;;;12.69;100.00;99747.97;10390460;28;20034;-73
2023/04/12 13:35:12;;;;;;;7.05;1.30;;;;;;;12.42;100.00;99739.53;10374331;28;20064;-74
2023/04/12 13:40:12;;;;;;;2.38;1.38;;;;;;;12.65;100.00;99730.53;10390893;28;20100;-73
2023/04/12 13:45:13;;;;;;;5.35;1.75;;;;;;;12.25;100.00;99726.69;10373489;28;20054;-73
2023/04/12 13:50:13;;;;;;;2.65;1.55;;;;;;;12.25;100.00;99728.56;10372902;28;20073;-73
2023/04/12 13:55:14;;;;;;;1.75;1.17;;;;;;;13.75;100.00;99728.50;10390261;28;20132;-73
2023/04/12 14:00:15;;;;;;;5.70;1.80;;;;;;;13.64;100.00;99714.75;10373668;28;20046;-73
2023/04/12 14:05:15;;;;;;;2.83;1.63;;;;;;;12.88;100.00;99710.59;10373969;28;20435;-74
2023/04/12 14:10:16;;;;;;;2.65;1.48;;;;;;;12.89;100.00;99720.41;10374080;28;20069;-73
2023/04/12 14:15:16;;;;;;;9.13;1.92;;;;;;;13.76;100.00;99709.22;10371875;28;20049;-74
2023/04/12 14:20:18;;;;;;;11.23;2.05;;;;;;;14.08;100.00;99711.34;10390242;28;20030;-74
2023/04/12 14:25:18;;;;;;;2.40;1.00;;;;;;;13.92;100.00;99696.69;10375459;28;20045;-73
2023/04/12 14:30:18;;;;;;;2.33;1.05;;;;;;;13.49;100.00;99698.97;10371887;28;20041;-73
2023/04/12 14:35:19;;;;;;;4.40;1.30;;;;;;;14.41;100.00;99685.94;10376948;28;20038;-74
2023/04/12 14:40:19;;;;;;;15.88;1.73;;;;;;;14.64;100.00;99688.47;10381632;28;20042;-73
2023/04/12 14:45:20;;;;;;;3.55;1.88;;;;;;;14.04;100.00;99672.06;10397237;28;20413;-73
2023/04/12 14:50:20;;;;;;;5.22;2.08;;;;;;;14.34;100.00;99674.41;10396659;28;20117;-74
2023/04/12 14:55:21;;;;;;;3.10;1.45;;;;;;;13.07;100.00;99678.63;10380521;28;20037;-74
2023/04/12 15:00:22;;;;;;;3.17;1.80;;;;;;;12.63;100.00;99676.44;10379302;28;20037;-73
2023/04/12 15:05:22;;;;;;;4.47;2.28;;;;;;;12.36;100.00;99675.34;10378730;28;20398;-75
2023/04/12 15:10:23;;;;;;;3.65;2.15;;;;;;;12.17;100.00;99672.75;10381188;28;20030;-74
2023/04/12 15:15:24;;;;;;;2.53;1.65;;;;;;;12.01;100.00;99673.50;10380466;28;20033;-73
2023/04/12 15:20:24;;;;;;;10.77;2.75;;;;;;;12.07;100.00;99676.06;10379158;28;20029;-73
2023/04/12 15:25:25;;;;;;;4.70;2.55;;;;;;;12.06;100.00;99681.72;10380171;28;20065;-73
2023/04/12 15:30:26;;;;;;;7.72;2.60;;;;;;;12.01;100.00;99676.19;10380137;28;20030;-73
2023/04/12 15:35:27;;;;;;;8.13;2.95;;;;;;;11.92;100.00;99686.56;10394908;28;20037;-74
2023/04/12 15:40:27;;;;;;;6.15;3.30;;;;;;;12.27;100.00;99686.56;10379449;28;20124;-74
2023/04/12 15:45:28;;;;;;;3.08;2.08;;;;;;;12.23;100.00;99676.41;10377574;28;20046;-74
2023/04/12 15:50:28;;;;;;;12.10;3.78;;;;;;;12.24;100.00;99670.75;10379291;28;20129;-74
2023/04/12 15:55:28;;;;;;;5.40;2.42;;;;;;;11.92;100.00;99678.44;10378839;28;20449;-73
2023/04/12 16:00:29;;;;;;;8.30;2.58;;;;;;;11.68;100.00;99683.03;10378912;28;20034;-73
2023/04/12 16:05:31;;;;;;;5.90;2.50;;;;;;;11.33;97.02;99664.81;10378593;28;20496;-73
2023/04/12 16:10:32;;;;;;;12.93;3.47;;;;;;;11.10;84.21;99656.59;10378500;28;20034;-73
2023/04/12 16:15:33;;;;;;;13.80;3.15;;;;;;;11.33;98.11;99658.56;10392820;28;20465;-73
2023/04/12 16:20:33;;;;;;;14.02;4.10;;;;;;;11.23;95.78;99661.84;10393728;28;20470;-73
2023/04/12 16:25:34;;;;;;;12.07;2.28;;;;;;;11.12;100.00;99658.03;10377857;28;20038;-73
2023/04/12 16:30:35;;;;;;;5.55;2.90;;;;;;;10.99;100.00;99657.41;10360228;28;20122;-73
2023/04/12 16:35:35;;;;;;;10.70;3.75;;;;;;;10.90;100.00;99652.31;10392050;28;20030;-74
2023/04/12 16:40:36;;;;;;;17.08;4.03;;;;;;;10.82;100.00;99647.22;10376795;28;20041;-73
2023/04/12 16:45:36;;;;;;;16.05;3.55;;;;;;;10.76;100.00;99641.91;10358937;28;20049;-73
2023/04/12 16:50:37;;;;;;;12.13;3.67;;;;;;;10.76;99.27;99631.09;10376914;28;20030;-73
2023/04/12 16:55:42;;;;;;;6.75;2.10;;;;;;;10.83;99.78;99627.22;10391938;28;20113;-73
2023/04/12 17:00:42;;;;;;;16.25;3.03;;;;;;;11.22;100.00;99635.78;10375122;28;20492;-73
2023/04/12 17:05:44;;;;;;;5.47;3.47;;;;;;;10.93;88.57;99624.75;10375437;28;20040;-73
2023/04/12 17:10:44;;;;;;;6.13;2.50;;;;;;;10.61;84.55;99609.81;10376097;28;20042;-73
2023/04/12 17:15:46;;;;;;;10.27;1.70;;;;;;;10.50;86.84;99611.44;10359432;28;20038;-73
2023/04/12 17:20:47;;;;;;;2.67;0.90;;;;;;;10.66;85.40;99602.66;10374669;28;20046;-73
2023/04/12 17:25:47;;;;;;;9.90;2.50;;;;;;;10.98;86.41;99604.31;10357945;28;20136;-74
2023/04/12 17:30:48;;;;;;;9.25;2.60;;;;;;;10.91;81.96;99582.72;10391099;28;20548;-73
2023/04/12 17:35:48;;;;;;;4.97;2.22;;;;;;;10.68;90.23;99580.78;10373911;28;20040;-73
2023/04/12 17:40:48;;;;;;;9.10;2.22;;;;;;;10.48;93.33;99583.75;10374176;28;20065;-73
2023/04/12 17:45:49;;;;;;;3.70;1.80;;;;;;;10.11;84.15;99599.19;10390889;28;20109;-73
2023/04/12 17:50:49;;;;;;;3.97;2.25;;;;;;;10.07;85.69;99585.28;10374285;28;20440;-73
2023/04/12 17:55:50;;;;;;;3.42;1.85;;;;;;;9.89;82.37;99577.16;10389382;28;20053;-73
2023/04/12 18:00:50;;;;;;;9.35;3.05;;;;;;;9.82;91.59;99577.25;10389800;28;20092;-73
2023/04/12 18:05:52;;;;;;;5.78;2.25;;;;;;;9.72;89.77;99574.25;10373635;28;20388;-73
2023/04/12 18:10:52;;;;;;;6.75;2.67;;;;;;;9.47;78.22;99567.00;10375584;28;20088;-73
2023/04/12 18:15:53;;;;;;;4.43;1.67;;;;;;;9.47;84.32;99563.47;10373447;28;20458;-73
2023/04/12 18:20:53;;;;;;;2.55;1.80;;;;;;;9.19;79.62;99562.09;10373980;28;20164;-73
2023/04/12 18:25:53;;;;;;;6.53;3.20;;;;;;;9.20;90.92;99571.03;10389207;28;20374;-73
2023/04/12 18:30:54;;;;;;;6.90;2.17;;;;;;;8.98;79.29;99560.59;10372855;28;20121;-73
2023/04/12 18:35:55;;;;;;;1.83;1.63;;;;;;;9.17;88.16;99547.16;10373014;28;20125;-73
2023/04/12 18:40:55;;;;;;;6.75;2.28;;;;;;;9.02;76.05;99542.91;10372234;28;20038;-73
2023/04/12 18:45:56;;;;;;;11.90;3.63;;;;;;;9.12;85.66;99528.06;10375572;28;20089;-73
2023/04/12 18:50:57;;;;;;;2.92;2.22;;;;;;;8.97;80.43;99517.63;10389053;28;20132;-73
2023/04/12 18:56:06;;;;;;;6.53;2.33;;;;;;;8.97;79.67;99521.16;10371610;28;20081;-73
2023/04/12 19:01:07;;;;;;;14.18;2.75;;;;;;;8.90;80.72;99512.25;10372978;28;20114;-72
2023/04/12 19:06:08;;;;;;;7.13;3.00;;;;;;;8.83;80.33;99517.72;10372129;28;20116;-72
2023/04/12 19:11:08;;;;;;;7.18;3.00;;;;;;;8.79;82.05;99518.38;10389007;28;20041;-73
2023/04/12 19:16:09;;;;;;;5.25;2.38;;;;;;;8.82;80.67;99524.19;10370842;28;20034;-73
2023/04/12 19:21:10;;;;;;;4.90;1.75;;;;;;;8.78;80.04;99522.16;10374505;28;20038;-72
2023/04/12 19:26:10;;;;;;;4.53;1.98;;;;;;;8.82;78.72;99496.34;10395374;28;20148;-72
2023/04/12 19:31:12;;;;;;;2.67;2.15;;;;;;;9.00;81.03;99509.91;10379996;28;20037;-72
2023/04/12 19:36:14;;;;;;;1.58;1.48;;;;;;;9.25;81.45;99500.94;10380018;28;20089;-72
2023/04/12 19:41:16;;;;;;;8.93;2.25;;;;;;;9.34;84.73;99487.97;10377796;28;20026;-72
2023/04/12 19:46:16;;;;;;;3.70;1.98;;;;;;;9.27;81.60;99472.66;10378288;28;20095;-73
2023/04/12 19:51:17;;;;;;;8.75;1.70;;;;;;;9.26;82.18;99471.03;10378824;28;20110;-72
2023/04/12 19:56:17;;;;;;;5.75;2.05;;;;;;;9.21;80.73;99462.75;10394403;28;20041;-73
2023/04/12 20:01:18;;;;;;;2.20;1.88;;;;;;;9.21;80.62;99438.44;10378605;28;20041;-73
2023/04/12 20:06:18;;;;;;;3.00;2.15;;;;;;;9.17;80.67;99441.81;10377278;28;20516;-73
2023/04/12 20:11:20;;;;;;;4.35;2.10;;;;;;;9.13;79.15;99422.53;10378397;28;20034;-71
2023/04/12 20:16:20;;;;;;;4.05;2.95;;;;;;;9.09;80.70;99415.91;10392636;28;20056;-72
2023/04/12 20:21:22;;;;;;;2.60;1.90;;;;;;;9.04;79.58;99407.69;10377375;28;20029;-73
2023/04/12 20:26:26;;;;;;;3.33;1.20;;;;;;;9.03;79.44;99390.66;10362234;28;20034;-72
2023/04/12 20:31:27;;;;;;;2.70;1.23;;;;;;;9.03;78.74;99370.91;10361314;28;20470;-73
2023/04/12 20:36:28;;;;;;;5.72;1.42;;;;;;;9.00;78.68;99380.31;10392569;28;20037;-74
2023/04/12 20:41:28;;;;;;;5.47;1.65;;;;;;;8.99;79.58;99348.94;10377080;28;20096;-73
2023/04/12 20:46:29;;;;;;;8.77;2.72;;;;;;;8.89;79.13;99348.66;10375957;28;20073;-73
2023/04/12 20:51:31;;;;;;;3.50;1.52;;;;;;;8.85;81.16;99339.34;10393285;28;20037;-73
2023/04/12 20:56:31;;;;;;;3.10;1.30;;;;;;;8.74;80.00;99332.84;10378373;28;20041;-73
2023/04/12 21:01:32;;;;;;;4.00;2.15;;;;;;;8.11;85.68;99309.53;10359534;28;20478;-72
2023/04/12 21:06:33;;;;;;;1.98;1.35;;;;;;;7.73;90.11;99292.63;10375220;28;20037;-73
2023/04/12 21:11:33;;;;;;;7.55;1.92;;;;;;;7.69;91.41;99285.00;10375135;28;20046;-73
2023/04/12 21:16:40;;;;;;;1.00;1.00;;;;;;;7.69;90.98;99282.28;10392387;28;20069;-73
2023/04/12 21:21:41;;;;;;;1.85;1.10;;;;;;;7.65;89.92;99254.13;10375192;28;20033;-73
2023/04/12 21:26:41;;;;;;;1.15;1.08;;;;;;;7.59;95.23;99275.72;10374943;28;20034;-71
2023/04/12 21:31:42;;;;;;;1.75;1.65;;;;;;;7.23;100.00;99307.63;10375765;28;20034;-71
2023/04/12 21:36:43;;;;;;;1.75;1.65;;;;;;;6.46;100.00;99284.31;10376191;28;20485;-69
2023/04/12 21:41:43;;;;;;;1.95;1.65;;;;;;;6.35;100.00;99298.41;10375417;28;20521;-69
2023/04/12 21:46:44;;;;;;;5.80;2.83;;;;;;;6.38;100.00;99293.47;10390614;28;20513;-69
2023/04/12 21:51:45;;;;;;;4.40;3.00;;;;;;;6.10;100.00;99271.38;10374115;28;20034;-69
2023/04/12 21:56:46;;;;;;;2.50;2.30;;;;;;;5.96;100.00;99263.28;10357509;28;20062;-69
2023/04/12 22:01:47;;;;;;;2.35;2.25;;;;;;;5.90;100.00;99239.91;10376145;28;20446;-69
2023/04/12 22:06:49;;;;;;;9.75;3.00;;;;;;;5.89;100.00;99242.81;10373473;28;20092;-69
2023/04/12 22:11:50;;;;;;;3.25;1.50;;;;;;;5.91;100.00;99246.97;10374695;28;20463;-69
2023/04/12 22:16:51;;;;;;;1.10;1.10;;;;;;;5.96;100.00;99236.44;10374154;28;20065;-68
2023/04/12 22:21:54;;;;;;;3.08;2.05;;;;;;;5.95;100.00;99229.41;10372777;28;20033;-68
2023/04/12 22:26:56;;;;;;;6.60;2.30;;;;;;;5.99;100.00;99229.81;10372791;28;20031;-68
2023/04/12 22:31:56;;;;;;;1.48;1.42;;;;;;;6.07;100.00;99223.41;10388973;28;20037;-68
2023/04/12 22:37:02;;;;;;;1.85;1.70;;;;;;;6.13;100.00;99220.72;10372954;28;20040;-69
2023/04/12 22:42:02;;;;;;;2.13;1.83;;;;;;;6.22;100.00;99222.16;10375006;28;20046;-69
2023/04/12 22:47:04;;;;;;;2.05;1.70;;;;;;;6.21;100.00;99239.28;10373567;28;20432;-69
2023/04/12 22:52:07;;;;;;;1.67;1.58;;;;;;;6.24;100.00;99238.06;10371827;28;20473;-70
2023/04/12 22:57:07;;;;;;;0.65;0.65;;;;;;;6.26;100.00;99228.75;10393598;28;20068;-70
2023/04/12 23:02:08;;;;;;;1.27;1.17;;;;;;;6.26;100.00;99220.69;10383343;28;20068;-70
2023/04/12 23:07:11;;;;;;;1.33;1.23;;;;;;;6.18;100.00;99187.81;10379962;28;20052;-70
2023/04/12 23:12:11;;;;;;;1.42;1.17;;;;;;;6.14;100.00;99200.03;10379926;28;20080;-70
2023/04/12 23:17:12;;;;;;;2.72;1.50;;;;;;;6.07;100.00;99199.22;10380068;28;20038;-70